sensor_id;sensor_type;location;lat;lon;timestamp;temperature;humidity
29663;DHT22;16578;53.266;7.920;2023-04-01T00:00:16;13.70;82.90
29663;DHT22;16578;53.266;7.920;2023-04-01T00:02:42;13.80;83.00
29663;DHT22;16578;53.266;7.920;2023-04-01T00:05:09;13.80;83.90
29663;DHT22;16578;53.266;7.920;2023-04-01T00:07:36;13.80;83.00
29663;DHT22;16578;53.266;7.920;2023-04-01T00:10:03;13.80;83.00
29663;DHT22;16578;53.266;7.920;2023-04-01T00:12:29;13.80;83.00
29663;DHT22;16578;53.266;7.920;2023-04-01T00:14:54;13.80;83.00
29663;DHT22;16578;53.266;7.920;2023-04-01T00:17:20;13.80;83.10
29663;DHT22;16578;53.266;7.920;2023-04-01T00:19:46;13.80;83.20
29663;DHT22;16578;53.266;7.920;2023-04-01T00:22:12;13.90;83.10
29663;DHT22;16578;53.266;7.920;2023-04-01T00:24:38;13.90;83.00
29663;DHT22;16578;53.266;7.920;2023-04-01T00:27:04;13.90;82.90
29663;DHT22;16578;53.266;7.920;2023-04-01T00:29:30;13.90;82.90
29663;DHT22;16578;53.266;7.920;2023-04-01T00:31:59;13.90;82.80
29663;DHT22;16578;53.266;7.920;2023-04-01T00:34:24;13.90;82.80
29663;DHT22;16578;53.266;7.920;2023-04-01T00:36:51;13.80;83.30
29663;DHT22;16578;53.266;7.920;2023-04-01T00:39:17;13.80;82.80
29663;DHT22;16578;53.266;7.920;2023-04-01T00:41:43;13.90;82.80
29663;DHT22;16578;53.266;7.920;2023-04-01T00:44:36;13.90;82.80
29663;DHT22;16578;53.266;7.920;2023-04-01T00:47:02;13.90;82.90
29663;DHT22;16578;53.266;7.920;2023-04-01T00:49:34;13.90;82.90
29663;DHT22;16578;53.266;7.920;2023-04-01T00:52:02;13.90;82.80
29663;DHT22;16578;53.266;7.920;2023-04-01T00:54:30;13.90;82.80
29663;DHT22;16578;53.266;7.920;2023-04-01T00:56:59;13.90;82.90
29663;DHT22;16578;53.266;7.920;2023-04-01T00:59:37;13.90;82.80
29663;DHT22;16578;53.266;7.920;2023-04-01T01:02:07;13.90;82.90
29663;DHT22;16578;53.266;7.920;2023-04-01T01:04:34;13.90;82.90
29663;DHT22;16578;53.266;7.920;2023-04-01T01:10:34;13.90;82.90
29663;DHT22;16578;53.266;7.920;2023-04-01T01:15:49;13.80;82.90
29663;DHT22;16578;53.266;7.920;2023-04-01T01:24:08;13.80;83.10
29663;DHT22;16578;53.266;7.920;2023-04-01T01:37:46;13.80;83.20
29663;DHT22;16578;53.266;7.920;2023-04-01T01:40:15;13.80;83.20
29663;DHT22;16578;53.266;7.920;2023-04-01T01:42:46;13.90;83.20
29663;DHT22;16578;53.266;7.920;2023-04-01T01:45:14;13.90;83.20
29663;DHT22;16578;53.266;7.920;2023-04-01T01:47:43;13.90;83.20
29663;DHT22;16578;53.266;7.920;2023-04-01T01:50:11;13.80;83.20
29663;DHT22;16578;53.266;7.920;2023-04-01T01:52:37;13.80;83.30
29663;DHT22;16578;53.266;7.920;2023-04-01T01:55:22;13.80;83.20
29663;DHT22;16578;53.266;7.920;2023-04-01T01:57:48;13.90;83.30
29663;DHT22;16578;53.266;7.920;2023-04-01T02:00:14;13.80;83.30
29663;DHT22;16578;53.266;7.920;2023-04-01T02:02:42;13.90;83.30
29663;DHT22;16578;53.266;7.920;2023-04-01T02:05:10;13.90;83.20
29663;DHT22;16578;53.266;7.920;2023-04-01T02:07:37;13.70;83.60
29663;DHT22;16578;53.266;7.920;2023-04-01T02:10:05;13.80;83.20
29663;DHT22;16578;53.266;7.920;2023-04-01T02:12:31;13.80;83.10
29663;DHT22;16578;53.266;7.920;2023-04-01T02:15:08;13.80;83.30
29663;DHT22;16578;53.266;7.920;2023-04-01T02:17:35;13.80;83.30
29663;DHT22;16578;53.266;7.920;2023-04-01T02:20:24;13.80;83.40
29663;DHT22;16578;53.266;7.920;2023-04-01T02:22:52;13.80;83.50
29663;DHT22;16578;53.266;7.920;2023-04-01T02:25:20;13.90;83.50
29663;DHT22;16578;53.266;7.920;2023-04-01T02:27:47;13.80;83.90
29663;DHT22;16578;53.266;7.920;2023-04-01T02:30:17;13.90;83.40
29663;DHT22;16578;53.266;7.920;2023-04-01T02:32:44;13.90;83.30
29663;DHT22;16578;53.266;7.920;2023-04-01T02:35:13;13.90;83.20
29663;DHT22;16578;53.266;7.920;2023-04-01T02:37:40;13.80;83.20
29663;DHT22;16578;53.266;7.920;2023-04-01T02:40:10;13.90;83.30
29663;DHT22;16578;53.266;7.920;2023-04-01T02:42:36;13.90;83.30
29663;DHT22;16578;53.266;7.920;2023-04-01T02:45:02;13.90;83.20
29663;DHT22;16578;53.266;7.920;2023-04-01T02:47:27;13.90;83.20
29663;DHT22;16578;53.266;7.920;2023-04-01T02:49:53;13.90;83.20
29663;DHT22;16578;53.266;7.920;2023-04-01T02:52:27;13.90;83.20
29663;DHT22;16578;53.266;7.920;2023-04-01T02:54:52;13.90;83.30
29663;DHT22;16578;53.266;7.920;2023-04-01T02:57:18;13.90;83.30
29663;DHT22;16578;53.266;7.920;2023-04-01T02:59:44;13.90;83.20
29663;DHT22;16578;53.266;7.920;2023-04-01T03:02:09;13.90;83.20
29663;DHT22;16578;53.266;7.920;2023-04-01T03:04:35;13.80;83.10
29663;DHT22;16578;53.266;7.920;2023-04-01T03:07:01;13.90;83.20
29663;DHT22;16578;53.266;7.920;2023-04-01T03:09:26;13.90;83.20
29663;DHT22;16578;53.266;7.920;2023-04-01T03:11:53;13.90;83.20
29663;DHT22;16578;53.266;7.920;2023-04-01T03:14:19;13.90;83.20
29663;DHT22;16578;53.266;7.920;2023-04-01T03:16:44;13.80;83.10
29663;DHT22;16578;53.266;7.920;2023-04-01T03:19:10;13.80;83.20
29663;DHT22;16578;53.266;7.920;2023-04-01T03:21:36;13.80;83.20
29663;DHT22;16578;53.266;7.920;2023-04-01T03:24:01;13.80;84.10
29663;DHT22;16578;53.266;7.920;2023-04-01T03:26:27;13.80;83.20
29663;DHT22;16578;53.266;7.920;2023-04-01T03:28:53;13.80;83.20
29663;DHT22;16578;53.266;7.920;2023-04-01T03:31:19;13.80;83.10
29663;DHT22;16578;53.266;7.920;2023-04-01T03:33:45;13.80;83.20
29663;DHT22;16578;53.266;7.920;2023-04-01T03:36:10;13.80;83.10
29663;DHT22;16578;53.266;7.920;2023-04-01T03:38:38;13.80;83.20
29663;DHT22;16578;53.266;7.920;2023-04-01T03:41:03;13.80;83.20
29663;DHT22;16578;53.266;7.920;2023-04-01T03:43:29;13.80;83.20
29663;DHT22;16578;53.266;7.920;2023-04-01T03:45:55;13.80;83.30
29663;DHT22;16578;53.266;7.920;2023-04-01T03:48:22;13.80;83.30
29663;DHT22;16578;53.266;7.920;2023-04-01T03:50:48;13.80;83.30
29663;DHT22;16578;53.266;7.920;2023-04-01T03:53:13;13.80;83.30
29663;DHT22;16578;53.266;7.920;2023-04-01T03:55:39;13.80;83.30
29663;DHT22;16578;53.266;7.920;2023-04-01T03:58:06;13.80;83.30
29663;DHT22;16578;53.266;7.920;2023-04-01T04:00:31;13.70;83.20
29663;DHT22;16578;53.266;7.920;2023-04-01T04:02:58;13.80;83.30
29663;DHT22;16578;53.266;7.920;2023-04-01T04:05:24;13.80;83.20
29663;DHT22;16578;53.266;7.920;2023-04-01T04:07:51;13.80;83.30
29663;DHT22;16578;53.266;7.920;2023-04-01T04:10:17;13.70;83.10
29663;DHT22;16578;53.266;7.920;2023-04-01T04:12:42;13.80;83.20
29663;DHT22;16578;53.266;7.920;2023-04-01T04:15:08;13.70;83.10
29663;DHT22;16578;53.266;7.920;2023-04-01T04:17:34;13.70;83.20
29663;DHT22;16578;53.266;7.920;2023-04-01T04:20:00;13.70;83.20
29663;DHT22;16578;53.266;7.920;2023-04-01T04:22:26;13.70;83.20
29663;DHT22;16578;53.266;7.920;2023-04-01T04:24:52;13.70;83.20
29663;DHT22;16578;53.266;7.920;2023-04-01T04:27:17;13.60;83.10
29663;DHT22;16578;53.266;7.920;2023-04-01T04:29:43;13.70;83.20
29663;DHT22;16578;53.266;7.920;2023-04-01T04:32:09;13.60;83.20
29663;DHT22;16578;53.266;7.920;2023-04-01T04:34:34;13.60;83.30
29663;DHT22;16578;53.266;7.920;2023-04-01T04:37:00;13.60;83.30
29663;DHT22;16578;53.266;7.920;2023-04-01T04:39:26;13.60;83.30
29663;DHT22;16578;53.266;7.920;2023-04-01T04:41:51;13.60;83.50
29663;DHT22;16578;53.266;7.920;2023-04-01T04:44:17;13.60;83.50
29663;DHT22;16578;53.266;7.920;2023-04-01T04:46:42;13.60;83.50
29663;DHT22;16578;53.266;7.920;2023-04-01T04:49:08;13.50;83.50
29663;DHT22;16578;53.266;7.920;2023-04-01T04:51:34;13.50;83.60
29663;DHT22;16578;53.266;7.920;2023-04-01T04:54:02;13.60;83.60
29663;DHT22;16578;53.266;7.920;2023-04-01T04:56:27;13.60;83.70
29663;DHT22;16578;53.266;7.920;2023-04-01T04:58:53;13.50;83.70
29663;DHT22;16578;53.266;7.920;2023-04-01T05:01:19;13.60;83.80
29663;DHT22;16578;53.266;7.920;2023-04-01T05:03:45;13.50;83.70
29663;DHT22;16578;53.266;7.920;2023-04-01T05:06:16;13.50;83.80
29663;DHT22;16578;53.266;7.920;2023-04-01T05:08:44;13.60;83.80
29663;DHT22;16578;53.266;7.920;2023-04-01T05:11:13;13.50;83.80
29663;DHT22;16578;53.266;7.920;2023-04-01T05:13:39;13.50;83.80
29663;DHT22;16578;53.266;7.920;2023-04-01T05:16:09;13.50;83.80
29663;DHT22;16578;53.266;7.920;2023-04-01T05:18:35;13.50;83.80
29663;DHT22;16578;53.266;7.920;2023-04-01T05:21:01;13.50;83.80
29663;DHT22;16578;53.266;7.920;2023-04-01T05:23:27;13.50;83.80
29663;DHT22;16578;53.266;7.920;2023-04-01T05:25:52;13.50;83.80
29663;DHT22;16578;53.266;7.920;2023-04-01T05:28:18;13.50;83.80
29663;DHT22;16578;53.266;7.920;2023-04-01T05:30:45;13.50;83.80
29663;DHT22;16578;53.266;7.920;2023-04-01T05:33:11;13.50;83.80
29663;DHT22;16578;53.266;7.920;2023-04-01T05:35:38;13.50;83.70
29663;DHT22;16578;53.266;7.920;2023-04-01T05:38:04;13.50;83.80
29663;DHT22;16578;53.266;7.920;2023-04-01T05:40:30;13.50;83.80
29663;DHT22;16578;53.266;7.920;2023-04-01T05:42:56;13.50;83.90
29663;DHT22;16578;53.266;7.920;2023-04-01T05:45:22;13.50;83.90
29663;DHT22;16578;53.266;7.920;2023-04-01T05:47:47;13.50;83.90
29663;DHT22;16578;53.266;7.920;2023-04-01T05:50:13;13.50;83.90
29663;DHT22;16578;53.266;7.920;2023-04-01T05:52:39;13.50;84.00
29663;DHT22;16578;53.266;7.920;2023-04-01T05:55:05;13.50;84.00
29663;DHT22;16578;53.266;7.920;2023-04-01T05:57:31;13.50;84.00
29663;DHT22;16578;53.266;7.920;2023-04-01T05:59:56;13.50;84.00
29663;DHT22;16578;53.266;7.920;2023-04-01T06:02:22;13.60;84.00
29663;DHT22;16578;53.266;7.920;2023-04-01T06:04:48;13.60;84.00
29663;DHT22;16578;53.266;7.920;2023-04-01T06:07:16;13.60;83.90
29663;DHT22;16578;53.266;7.920;2023-04-01T06:09:43;13.60;83.90
29663;DHT22;16578;53.266;7.920;2023-04-01T06:12:19;13.60;83.90
29663;DHT22;16578;53.266;7.920;2023-04-01T06:21:12;13.60;84.00
29663;DHT22;16578;53.266;7.920;2023-04-01T06:40:31;13.70;84.00
29663;DHT22;16578;53.266;7.920;2023-04-01T06:48:17;13.70;84.10
29663;DHT22;16578;53.266;7.920;2023-04-01T06:50:54;13.70;84.00
29663;DHT22;16578;53.266;7.920;2023-04-01T06:53:36;13.70;84.10
29663;DHT22;16578;53.266;7.920;2023-04-01T06:56:10;13.70;84.10
29663;DHT22;16578;53.266;7.920;2023-04-01T06:58:47;13.70;84.20
29663;DHT22;16578;53.266;7.920;2023-04-01T07:01:18;13.70;84.30
29663;DHT22;16578;53.266;7.920;2023-04-01T07:04:06;13.70;84.20
29663;DHT22;16578;53.266;7.920;2023-04-01T07:06:47;13.70;85.10
29663;DHT22;16578;53.266;7.920;2023-04-01T07:09:27;13.70;84.20
29663;DHT22;16578;53.266;7.920;2023-04-01T07:12:03;13.80;84.40
29663;DHT22;16578;53.266;7.920;2023-04-01T07:14:40;13.80;84.30
29663;DHT22;16578;53.266;7.920;2023-04-01T07:17:27;13.80;84.30
29663;DHT22;16578;53.266;7.920;2023-04-01T07:22:35;13.90;84.10
29663;DHT22;16578;53.266;7.920;2023-04-01T07:25:13;13.90;84.10
29663;DHT22;16578;53.266;7.920;2023-04-01T07:27:39;13.90;84.00
29663;DHT22;16578;53.266;7.920;2023-04-01T07:30:20;13.90;84.00
29663;DHT22;16578;53.266;7.920;2023-04-01T07:32:54;13.90;83.90
29663;DHT22;16578;53.266;7.920;2023-04-01T07:35:38;13.90;84.10
29663;DHT22;16578;53.266;7.920;2023-04-01T07:43:22;14.00;84.20
29663;DHT22;16578;53.266;7.920;2023-04-01T07:46:04;14.10;84.30
29663;DHT22;16578;53.266;7.920;2023-04-01T07:56:58;14.20;84.00
29663;DHT22;16578;53.266;7.920;2023-04-01T07:59:29;14.20;83.80
29663;DHT22;16578;53.266;7.920;2023-04-01T08:07:18;14.30;83.70
29663;DHT22;16578;53.266;7.920;2023-04-01T08:10:16;14.40;83.60
29663;DHT22;16578;53.266;7.920;2023-04-01T08:12:58;14.40;83.40
29663;DHT22;16578;53.266;7.920;2023-04-01T08:18:09;14.40;83.30
29663;DHT22;16578;53.266;7.920;2023-04-01T08:20:58;14.40;83.40
29663;DHT22;16578;53.266;7.920;2023-04-01T08:23:36;14.40;83.40
29663;DHT22;16578;53.266;7.920;2023-04-01T08:28:43;14.50;83.20
29663;DHT22;16578;53.266;7.920;2023-04-01T08:33:58;14.50;82.70
29663;DHT22;16578;53.266;7.920;2023-04-01T08:36:28;14.50;82.80
29663;DHT22;16578;53.266;7.920;2023-04-01T08:39:08;14.50;82.30
29663;DHT22;16578;53.266;7.920;2023-04-01T08:42:13;14.40;81.40
29663;DHT22;16578;53.266;7.920;2023-04-01T08:50:33;14.10;80.70
29663;DHT22;16578;53.266;7.920;2023-04-01T08:56:02;13.90;81.00
29663;DHT22;16578;53.266;7.920;2023-04-01T09:04:10;13.70;81.40
29663;DHT22;16578;53.266;7.920;2023-04-01T09:06:48;13.60;81.20
29663;DHT22;16578;53.266;7.920;2023-04-01T09:15:21;13.30;81.70
29663;DHT22;16578;53.266;7.920;2023-04-01T09:18:27;13.30;81.80
29663;DHT22;16578;53.266;7.920;2023-04-01T09:32:42;13.00;82.30
29663;DHT22;16578;53.266;7.920;2023-04-01T09:35:20;12.90;82.40
29663;DHT22;16578;53.266;7.920;2023-04-01T09:43:12;12.80;82.50
29663;DHT22;16578;53.266;7.920;2023-04-01T09:46:02;12.80;82.60
29663;DHT22;16578;53.266;7.920;2023-04-01T09:56:51;12.60;83.20
29663;DHT22;16578;53.266;7.920;2023-04-01T09:59:32;12.80;82.90
29663;DHT22;16578;53.266;7.920;2023-04-01T10:02:22;12.80;82.80
29663;DHT22;16578;53.266;7.920;2023-04-01T10:24:53;12.80;83.10
29663;DHT22;16578;53.266;7.920;2023-04-01T10:30:44;12.80;82.50
29663;DHT22;16578;53.266;7.920;2023-04-01T10:33:23;12.90;82.60
29663;DHT22;16578;53.266;7.920;2023-04-01T10:39:08;12.80;82.70
29663;DHT22;16578;53.266;7.920;2023-04-01T10:56:56;12.80;82.50
29663;DHT22;16578;53.266;7.920;2023-04-01T11:22:45;12.60;82.00
29663;DHT22;16578;53.266;7.920;2023-04-01T11:28:42;12.60;81.60
29663;DHT22;16578;53.266;7.920;2023-04-01T11:43:24;12.40;81.80
29663;DHT22;16578;53.266;7.920;2023-04-01T11:46:10;12.40;81.60
29663;DHT22;16578;53.266;7.920;2023-04-01T11:51:59;12.30;81.40
29663;DHT22;16578;53.266;7.920;2023-04-01T11:57:40;12.20;81.80
29663;DHT22;16578;53.266;7.920;2023-04-01T12:03:15;12.10;81.90
29663;DHT22;16578;53.266;7.920;2023-04-01T12:08:51;12.10;82.10
29663;DHT22;16578;53.266;7.920;2023-04-01T12:11:32;12.10;82.00
29663;DHT22;16578;53.266;7.920;2023-04-01T12:14:19;12.10;82.20
29663;DHT22;16578;53.266;7.920;2023-04-01T12:16:50;12.10;82.20
29663;DHT22;16578;53.266;7.920;2023-04-01T12:22:23;12.20;82.50
29663;DHT22;16578;53.266;7.920;2023-04-01T12:28:48;12.20;82.20
29663;DHT22;16578;53.266;7.920;2023-04-01T12:33:56;12.30;82.30
29663;DHT22;16578;53.266;7.920;2023-04-01T12:36:40;12.30;81.90
29663;DHT22;16578;53.266;7.920;2023-04-01T12:39:34;12.30;81.90
29663;DHT22;16578;53.266;7.920;2023-04-01T12:42:27;12.30;81.90
29663;DHT22;16578;53.266;7.920;2023-04-01T12:48:27;12.20;81.40
29663;DHT22;16578;53.266;7.920;2023-04-01T12:59:26;12.20;81.60
29663;DHT22;16578;53.266;7.920;2023-04-01T13:02:00;12.20;81.40
29663;DHT22;16578;53.266;7.920;2023-04-01T13:12:36;12.10;81.70
29663;DHT22;16578;53.266;7.920;2023-04-01T13:21:15;12.10;81.50
29663;DHT22;16578;53.266;7.920;2023-04-01T13:26:34;12.10;81.40
29663;DHT22;16578;53.266;7.920;2023-04-01T13:29:14;12.10;81.50
29663;DHT22;16578;53.266;7.920;2023-04-01T13:37:41;12.10;81.20
29663;DHT22;16578;53.266;7.920;2023-04-01T13:40:33;12.00;81.10
29663;DHT22;16578;53.266;7.920;2023-04-01T13:43:26;12.00;81.20
29663;DHT22;16578;53.266;7.920;2023-04-01T13:46:47;12.00;81.20
29663;DHT22;16578;53.266;7.920;2023-04-01T13:49:06;12.00;81.50
29663;DHT22;16578;53.266;7.920;2023-04-01T13:54:40;12.10;81.20
29663;DHT22;16578;53.266;7.920;2023-04-01T13:57:43;12.10;81.20
29663;DHT22;16578;53.266;7.920;2023-04-01T14:00:19;12.10;81.10
29663;DHT22;16578;53.266;7.920;2023-04-01T14:03:13;12.00;81.30
29663;DHT22;16578;53.266;7.920;2023-04-01T14:17:07;12.00;81.10
29663;DHT22;16578;53.266;7.920;2023-04-01T14:25:39;11.90;80.40
29663;DHT22;16578;53.266;7.920;2023-04-01T14:28:46;11.90;80.30
29663;DHT22;16578;53.266;7.920;2023-04-01T14:31:21;11.90;80.40
29663;DHT22;16578;53.266;7.920;2023-04-01T14:47:34;11.80;80.40
29663;DHT22;16578;53.266;7.920;2023-04-01T14:50:23;11.70;80.30
29663;DHT22;16578;53.266;7.920;2023-04-01T14:55:42;11.60;80.30
29663;DHT22;16578;53.266;7.920;2023-04-01T14:58:18;11.60;80.40
29663;DHT22;16578;53.266;7.920;2023-04-01T15:12:23;11.40;80.40
29663;DHT22;16578;53.266;7.920;2023-04-01T15:17:48;11.30;81.20
29663;DHT22;16578;53.266;7.920;2023-04-01T15:20:41;11.20;80.30
29663;DHT22;16578;53.266;7.920;2023-04-01T15:23:41;11.20;80.40
29663;DHT22;16578;53.266;7.920;2023-04-01T15:26:26;11.10;80.50
29663;DHT22;16578;53.266;7.920;2023-04-01T15:31:50;11.10;80.80
29663;DHT22;16578;53.266;7.920;2023-04-01T15:40:27;10.90;80.40
29663;DHT22;16578;53.266;7.920;2023-04-01T15:48:33;10.80;80.50
29663;DHT22;16578;53.266;7.920;2023-04-01T15:54:22;10.70;80.60
29663;DHT22;16578;53.266;7.920;2023-04-01T15:57:15;10.70;80.70
29663;DHT22;16578;53.266;7.920;2023-04-01T16:08:45;10.50;80.70
29663;DHT22;16578;53.266;7.920;2023-04-01T16:14:24;10.50;80.90
29663;DHT22;16578;53.266;7.920;2023-04-01T16:22:38;10.50;80.80
29663;DHT22;16578;53.266;7.920;2023-04-01T16:25:39;10.40;80.80
29663;DHT22;16578;53.266;7.920;2023-04-01T16:31:07;10.40;81.10
29663;DHT22;16578;53.266;7.920;2023-04-01T16:33:57;10.40;80.90
29663;DHT22;16578;53.266;7.920;2023-04-01T16:36:35;10.40;80.90
29663;DHT22;16578;53.266;7.920;2023-04-01T16:42:17;10.30;80.80
29663;DHT22;16578;53.266;7.920;2023-04-01T16:47:47;10.30;80.80
29663;DHT22;16578;53.266;7.920;2023-04-01T16:50:21;10.20;80.70
29663;DHT22;16578;53.266;7.920;2023-04-01T16:55:34;10.20;80.80
29663;DHT22;16578;53.266;7.920;2023-04-01T16:58:01;10.20;80.90
29663;DHT22;16578;53.266;7.920;2023-04-01T17:00:49;10.20;81.00
29663;DHT22;16578;53.266;7.920;2023-04-01T17:03:43;10.20;80.80
29663;DHT22;16578;53.266;7.920;2023-04-01T17:09:51;10.10;80.90
29663;DHT22;16578;53.266;7.920;2023-04-01T17:12:20;10.10;80.90
29663;DHT22;16578;53.266;7.920;2023-04-01T17:14:52;10.10;81.00
29663;DHT22;16578;53.266;7.920;2023-04-01T17:17:42;10.10;80.90
29663;DHT22;16578;53.266;7.920;2023-04-01T17:28:41;10.00;80.80
29663;DHT22;16578;53.266;7.920;2023-04-01T17:31:40;10.00;80.80
29663;DHT22;16578;53.266;7.920;2023-04-01T17:34:41;10.00;80.70
29663;DHT22;16578;53.266;7.920;2023-04-01T17:40:06;9.90;80.70
29663;DHT22;16578;53.266;7.920;2023-04-01T17:53:43;9.80;80.70
29663;DHT22;16578;53.266;7.920;2023-04-01T18:02:12;9.80;80.80
29663;DHT22;16578;53.266;7.920;2023-04-01T18:07:38;9.80;80.60
29663;DHT22;16578;53.266;7.920;2023-04-01T18:10:28;9.80;80.60
29663;DHT22;16578;53.266;7.920;2023-04-01T18:13:15;9.80;80.60
29663;DHT22;16578;53.266;7.920;2023-04-01T18:19:09;9.70;80.30
29663;DHT22;16578;53.266;7.920;2023-04-01T18:21:46;9.70;80.10
29663;DHT22;16578;53.266;7.920;2023-04-01T18:26:40;9.60;80.30
29663;DHT22;16578;53.266;7.920;2023-04-01T18:29:30;9.60;80.30
29663;DHT22;16578;53.266;7.920;2023-04-01T18:32:17;9.60;80.20
29663;DHT22;16578;53.266;7.920;2023-04-01T18:34:54;9.60;80.00
29663;DHT22;16578;53.266;7.920;2023-04-01T18:37:44;9.40;80.30
29663;DHT22;16578;53.266;7.920;2023-04-01T18:40:40;9.50;80.20
29663;DHT22;16578;53.266;7.920;2023-04-01T18:43:18;9.40;80.20
29663;DHT22;16578;53.266;7.920;2023-04-01T18:46:27;9.40;80.20
29663;DHT22;16578;53.266;7.920;2023-04-01T18:49:19;9.40;80.40
29663;DHT22;16578;53.266;7.920;2023-04-01T18:51:53;9.30;80.40
29663;DHT22;16578;53.266;7.920;2023-04-01T18:54:30;9.30;80.40
29663;DHT22;16578;53.266;7.920;2023-04-01T18:59:52;9.30;80.20
29663;DHT22;16578;53.266;7.920;2023-04-01T19:02:28;9.30;80.10
29663;DHT22;16578;53.266;7.920;2023-04-01T19:07:48;9.30;80.00
29663;DHT22;16578;53.266;7.920;2023-04-01T19:18:53;9.10;80.10
29663;DHT22;16578;53.266;7.920;2023-04-01T19:21:33;9.10;80.00
29663;DHT22;16578;53.266;7.920;2023-04-01T19:32:16;9.10;80.10
29663;DHT22;16578;53.266;7.920;2023-04-01T19:37:40;9.10;80.20
29663;DHT22;16578;53.266;7.920;2023-04-01T19:43:20;9.10;80.00
29663;DHT22;16578;53.266;7.920;2023-04-01T19:45:59;9.00;79.90
29663;DHT22;16578;53.266;7.920;2023-04-01T19:48:44;9.00;79.70
29663;DHT22;16578;53.266;7.920;2023-04-01T19:57:20;9.00;79.80
29663;DHT22;16578;53.266;7.920;2023-04-01T19:59:30;9.00;79.90
29663;DHT22;16578;53.266;7.920;2023-04-01T20:04:55;8.90;79.70
29663;DHT22;16578;53.266;7.920;2023-04-01T20:07:39;8.90;79.70
29663;DHT22;16578;53.266;7.920;2023-04-01T20:12:57;8.80;79.30
29663;DHT22;16578;53.266;7.920;2023-04-01T20:15:34;8.80;79.20
29663;DHT22;16578;53.266;7.920;2023-04-01T20:18:02;8.80;79.30
29663;DHT22;16578;53.266;7.920;2023-04-01T20:20:31;8.70;79.20
29663;DHT22;16578;53.266;7.920;2023-04-01T20:25:58;8.70;79.20
29663;DHT22;16578;53.266;7.920;2023-04-01T20:28:42;8.60;79.00
29663;DHT22;16578;53.266;7.920;2023-04-01T20:31:36;8.60;79.10
29663;DHT22;16578;53.266;7.920;2023-04-01T20:35:00;8.60;79.00
29663;DHT22;16578;53.266;7.920;2023-04-01T20:46:22;8.50;78.90
29663;DHT22;16578;53.266;7.920;2023-04-01T20:51:29;8.50;78.90
29663;DHT22;16578;53.266;7.920;2023-04-01T20:54:21;8.50;78.70
29663;DHT22;16578;53.266;7.920;2023-04-01T20:59:41;8.50;78.80
29663;DHT22;16578;53.266;7.920;2023-04-01T21:07:37;8.40;78.20
29663;DHT22;16578;53.266;7.920;2023-04-01T21:15:55;8.20;77.20
29663;DHT22;16578;53.266;7.920;2023-04-01T21:18:49;8.20;77.90
29663;DHT22;16578;53.266;7.920;2023-04-01T21:32:45;8.00;77.40
29663;DHT22;16578;53.266;7.920;2023-04-01T21:38:23;8.00;77.90
29663;DHT22;16578;53.266;7.920;2023-04-01T21:41:09;8.00;77.30
29663;DHT22;16578;53.266;7.920;2023-04-01T21:44:03;8.00;77.80
29663;DHT22;16578;53.266;7.920;2023-04-01T21:49:46;8.00;77.10
29663;DHT22;16578;53.266;7.920;2023-04-01T21:58:46;7.90;77.00
29663;DHT22;16578;53.266;7.920;2023-04-01T22:06:56;7.90;77.00
29663;DHT22;16578;53.266;7.920;2023-04-01T22:09:34;7.80;77.10
29663;DHT22;16578;53.266;7.920;2023-04-01T22:18:09;7.80;76.90
29663;DHT22;16578;53.266;7.920;2023-04-01T22:20:50;7.80;76.80
29663;DHT22;16578;53.266;7.920;2023-04-01T22:26:17;7.70;76.50
29663;DHT22;16578;53.266;7.920;2023-04-01T22:29:01;7.70;76.10
29663;DHT22;16578;53.266;7.920;2023-04-01T22:40:22;7.50;76.20
29663;DHT22;16578;53.266;7.920;2023-04-01T22:42:57;7.40;75.70
29663;DHT22;16578;53.266;7.920;2023-04-01T22:45:52;7.40;75.90
29663;DHT22;16578;53.266;7.920;2023-04-01T22:51:42;7.20;75.80
29663;DHT22;16578;53.266;7.920;2023-04-01T22:54:29;7.20;76.00
29663;DHT22;16578;53.266;7.920;2023-04-01T22:57:05;7.10;76.30
29663;DHT22;16578;53.266;7.920;2023-04-01T22:59:46;7.10;76.30
29663;DHT22;16578;53.266;7.920;2023-04-01T23:02:18;7.00;76.30
29663;DHT22;16578;53.266;7.920;2023-04-01T23:04:52;7.00;76.40
29663;DHT22;16578;53.266;7.920;2023-04-01T23:10:39;7.00;76.40
29663;DHT22;16578;53.266;7.920;2023-04-01T23:13:12;6.90;76.20
29663;DHT22;16578;53.266;7.920;2023-04-01T23:15:40;6.80;76.30
29663;DHT22;16578;53.266;7.920;2023-04-01T23:18:14;6.80;76.40
29663;DHT22;16578;53.266;7.920;2023-04-01T23:23:35;6.70;76.50
29663;DHT22;16578;53.266;7.920;2023-04-01T23:26:15;6.70;76.40
29663;DHT22;16578;53.266;7.920;2023-04-01T23:28:44;6.70;76.40
29663;DHT22;16578;53.266;7.920;2023-04-01T23:31:35;6.70;76.60
29663;DHT22;16578;53.266;7.920;2023-04-01T23:36:41;6.60;76.40
29663;DHT22;16578;53.266;7.920;2023-04-01T23:39:38;6.50;76.20
29663;DHT22;16578;53.266;7.920;2023-04-01T23:42:20;6.40;76.10
29663;DHT22;16578;53.266;7.920;2023-04-01T23:44:49;6.40;76.30
29663;DHT22;16578;53.266;7.920;2023-04-01T23:47:17;6.40;76.40
29663;DHT22;16578;53.266;7.920;2023-04-01T23:50:10;6.30;76.40
29663;DHT22;16578;53.266;7.920;2023-04-01T23:52:42;6.30;76.30
29663;DHT22;16578;53.266;7.920;2023-04-01T23:57:36;6.20;76.30
